Time;durP1;ratioP1;P1;durP2;ratioP2;P2;SDS_P1;SDS_P2;PMS_P1;PMS_P2;Temp;Humidity;BMP_temperature;BMP_pressure;BME280_temperature;BME280_humidity;BME280_pressure;Samples;Min_cycle;Max_cycle;Signal;HPM_P1;HPM_P2
2023/07/07 00:01:40;;;;;;;10.82;3.15;;;15.20;68.70;;;;;;6088730;23;20013;-80
2023/07/07 00:04:06;;;;;;;5.55;2.90;;;15.00;68.40;;;;;;6060378;23;20025;-80
2023/07/07 00:06:32;;;;;;;4.18;2.53;;;14.90;69.10;;;;;;6083333;23;20408;-80
2023/07/07 00:08:59;;;;;;;8.43;3.08;;;14.80;70.10;;;;;;6063117;23;20032;-80
2023/07/07 00:11:25;;;;;;;4.43;2.85;;;14.70;69.90;;;;;;6059972;23;20018;-80
2023/07/07 00:13:52;;;;;;;9.30;3.13;;;14.80;70.50;;;;;;6061314;23;20016;-80
2023/07/07 00:16:20;;;;;;;7.95;2.95;;;14.70;70.40;;;;;;6061635;23;20014;-80
2023/07/07 00:18:46;;;;;;;5.05;2.58;;;14.50;70.60;;;;;;6081938;23;20381;-79
2023/07/07 00:21:12;;;;;;;6.78;2.72;;;14.50;70.60;;;;;;6083740;23;20352;-79
2023/07/07 00:23:38;;;;;;;4.47;2.10;;;14.40;70.40;;;;;;6059797;23;20025;-80
2023/07/07 00:26:05;;;;;;;5.18;2.45;;;14.30;70.70;;;;;;6084770;23;20448;-80
2023/07/07 00:28:31;;;;;;;4.22;2.50;;;14.30;71.30;;;;;;6060132;23;20399;-80
2023/07/07 00:30:56;;;;;;;6.25;2.83;;;14.10;71.80;;;;;;6062679;23;20675;-80
2023/07/07 00:33:22;;;;;;;6.60;2.50;;;14.00;72.20;;;;;;6058247;23;20014;-80
2023/07/07 00:35:48;;;;;;;5.07;2.42;;;14.10;71.70;;;;;;6061290;23;20432;-80
2023/07/07 00:38:14;;;;;;;6.07;3.10;;;14.10;71.80;;;;;;6059578;23;20341;-80
2023/07/07 00:40:40;;;;;;;4.45;2.25;;;14.10;72.10;;;;;;6058064;23;20350;-80
2023/07/07 00:43:12;;;;;;;5.60;2.97;;;14.00;72.10;;;;;;6083819;23;20101;-80
2023/07/07 00:45:38;;;;;;;3.70;2.30;;;13.90;71.90;;;;;;6062542;23;20444;-80
2023/07/07 00:48:04;;;;;;;4.05;2.30;;;13.90;72.10;;;;;;6032580;23;20010;-80
2023/07/07 00:51:00;;;;;;;3.97;2.47;;;13.80;71.90;;;;;;6061795;23;20022;-80
2023/07/07 00:53:26;;;;;;;;;;;13.80;71.60;;;;;;6059968;23;20397;-80
2023/07/07 00:55:54;;;;;;;3.27;2.20;;;13.60;72.40;;;;;;6083143;23;19915;-80
2023/07/07 00:58:21;;;;;;;6.97;2.75;;;13.70;72.40;;;;;;6059223;23;20053;-81
2023/07/07 01:00:52;;;;;;;3.60;2.08;;;13.50;72.40;;;;;;6057417;23;20326;-80
2023/07/07 01:03:22;;;;;;;5.80;2.20;;;13.40;73.10;;;;;;6035566;23;20467;-80
2023/07/07 01:05:47;;;;;;;6.50;2.40;;;13.30;73.40;;;;;;6062028;23;20014;-80
2023/07/07 01:08:13;;;;;;;3.08;2.38;;;13.30;73.80;;;;;;6055321;23;20456;-80
2023/07/07 01:10:38;;;;;;;7.57;2.30;;;13.30;73.60;;;;;;6061388;23;20053;-81
2023/07/07 01:13:04;;;;;;;4.95;2.65;;;13.20;74.00;;;;;;6061210;23;20006;-81
2023/07/07 01:15:31;;;;;;;3.83;2.22;;;13.10;74.30;;;;;;6058125;23;20026;-80
2023/07/07 01:18:05;;;;;;;4.93;2.50;;;13.10;73.80;;;;;;6057595;23;20273;-80
2023/07/07 01:21:09;;;;;;;3.88;2.25;;;13.20;74.40;;;;;;6078703;23;20474;-80
2023/07/07 01:23:56;;;;;;;4.07;2.50;;;13.20;73.90;;;;;;6061814;23;20041;-81
2023/07/07 01:27:03;;;;;;;2.67;2.30;;;13.00;74.50;;;;;;6080129;23;20019;-80
2023/07/07 01:29:58;;;;;;;7.65;2.53;;;13.00;74.30;;;;;;6077850;23;20440;-80
2023/07/07 01:32:27;;;;;;;4.40;2.10;;;13.00;74.20;;;;;;6058364;23;20025;-81
2023/07/07 01:34:57;;;;;;;7.57;2.85;;;13.00;74.50;;;;;;6033957;23;20005;-80
2023/07/07 01:37:23;;;;;;;5.25;2.60;;;13.00;74.30;;;;;;6060979;23;20014;-80
2023/07/07 01:39:48;;;;;;;3.05;1.95;;;12.90;74.60;;;;;;6056881;23;20014;-80
2023/07/07 01:42:25;;;;;;;3.60;1.83;;;12.90;74.40;;;;;;6059204;23;20024;-80
2023/07/07 01:45:04;;;;;;;2.97;1.63;;;13.00;73.90;;;;;;6057776;23;20033;-80
2023/07/07 01:47:33;;;;;;;4.45;1.92;;;13.20;74.30;;;;;;6038906;23;20022;-80
2023/07/07 01:50:03;;;;;;;5.97;2.35;;;13.10;73.60;;;;;;6061317;23;20021;-80
2023/07/07 01:53:00;;;;;;;4.05;2.75;;;13.00;73.90;;;;;;6058936;23;20021;-81
2023/07/07 01:55:27;;;;;;;3.50;2.65;;;12.90;73.90;;;;;;6057647;23;20069;-81
2023/07/07 01:58:02;;;;;;;4.10;2.83;;;12.80;75.70;;;;;;6059804;23;20044;-80
2023/07/07 02:00:29;;;;;;;5.03;2.85;;;12.70;77.40;;;;;;6059868;23;20356;-80
2023/07/07 02:02:55;;;;;;;4.55;3.08;;;12.60;77.50;;;;;;6058922;23;20021;-81
2023/07/07 02:05:21;;;;;;;4.90;2.95;;;12.60;78.00;;;;;;6033585;23;20045;-80
2023/07/07 02:07:46;;;;;;;5.65;2.63;;;12.50;78.20;;;;;;6060820;23;20014;-80
2023/07/07 02:10:12;;;;;;;3.80;2.85;;;12.60;76.80;;;;;;6057777;23;20413;-80
2023/07/07 02:12:38;;;;;;;5.13;3.03;;;12.60;76.50;;;;;;6061242;23;20014;-81
2023/07/07 02:15:04;;;;;;;5.30;2.65;;;12.50;76.20;;;;;;6058402;23;20052;-81
2023/07/07 02:17:29;;;;;;;4.00;2.75;;;12.50;76.50;;;;;;6057156;23;20010;-81
2023/07/07 02:19:56;;;;;;;4.65;2.60;;;12.40;79.40;;;;;;6061115;23;20022;-81
2023/07/07 02:22:21;;;;;;;8.43;3.38;;;12.40;84.10;;;;;;6034656;23;20021;-80
2023/07/07 02:24:47;;;;;;;3.60;2.72;;;12.30;90.60;;;;;;6059929;23;20013;-81
2023/07/07 02:27:13;;;;;;;5.38;2.67;;;12.30;87.30;;;;;;6107716;23;20020;-80
2023/07/07 02:29:38;;;;;;;3.35;2.00;;;12.30;80.90;;;;;;6062838;23;20018;-81
2023/07/07 02:32:05;;;;;;;2.75;1.92;;;12.40;80.60;;;;;;6063543;23;20017;-81
2023/07/07 02:34:30;;;;;;;5.43;2.28;;;12.40;79.70;;;;;;6036337;23;20105;-81
2023/07/07 02:36:56;;;;;;;7.00;2.50;;;12.40;80.40;;;;;;6061218;23;20445;-80
2023/07/07 02:39:21;;;;;;;3.92;2.33;;;12.20;82.50;;;;;;6085595;23;20017;-81
2023/07/07 02:41:47;;;;;;;6.35;2.72;;;12.10;82.50;;;;;;6033214;23;20021;-80
2023/07/07 02:44:13;;;;;;;4.13;2.60;;;12.20;84.40;;;;;;6062579;23;20010;-81
2023/07/07 02:46:39;;;;;;;4.07;2.63;;;12.10;81.80;;;;;;6061461;23;20014;-81
2023/07/07 02:49:04;;;;;;;4.25;2.22;;;12.00;82.20;;;;;;6061461;23;20090;-81
2023/07/07 02:51:30;;;;;;;7.63;2.92;;;11.90;82.70;;;;;;6060859;23;20293;-80
2023/07/07 02:53:56;;;;;;;7.80;2.92;;;11.80;86.70;;;;;;6061512;23;20076;-80
2023/07/07 02:56:21;;;;;;;5.90;2.75;;;11.90;86.40;;;;;;6062381;23;20416;-79
2023/07/07 02:58:47;;;;;;;4.80;2.55;;;11.80;88.20;;;;;;6083670;23;20500;-80
2023/07/07 03:01:15;;;;;;;5.55;2.85;;;11.80;90.00;;;;;;6059507;23;20041;-80
2023/07/07 03:03:42;;;;;;;6.47;2.67;;;11.70;89.70;;;;;;6061662;23;20010;-80
2023/07/07 03:06:10;;;;;;;4.57;2.88;;;11.70;91.80;;;;;;6059671;23;20082;-80
2023/07/07 03:08:36;;;;;;;5.88;3.15;;;11.60;91.50;;;;;;6060603;23;20014;-79
2023/07/07 03:11:09;;;;;;;6.97;3.00;;;11.70;90.90;;;;;;6062026;23;20012;-80
2023/07/07 03:13:35;;;;;;;7.32;3.00;;;11.60;90.00;;;;;;6056666;23;20145;-79
2023/07/07 03:16:08;;;;;;;3.95;2.47;;;11.60;94.60;;;;;;6060764;23;20464;-78
2023/07/07 03:18:33;;;;;;;8.13;3.03;;;11.50;92.70;;;;;;6064037;23;20010;-81
2023/07/07 03:20:59;;;;;;;5.78;2.35;;;11.40;92.30;;;;;;6085483;23;20009;-80
2023/07/07 03:23:24;;;;;;;4.85;2.58;;;11.70;90.90;;;;;;6059891;23;20113;-79
2023/07/07 03:25:50;;;;;;;6.50;3.05;;;11.80;90.00;;;;;;6060741;23;20010;-81
2023/07/07 03:28:15;;;;;;;5.93;2.92;;;11.70;93.00;;;;;;6058071;23;20013;-81
2023/07/07 03:30:41;;;;;;;5.72;2.53;;;11.60;91.50;;;;;;6081541;23;20040;-81
2023/07/07 03:33:06;;;;;;;6.07;2.85;;;11.50;95.30;;;;;;6060582;23;20014;-82
2023/07/07 03:35:32;;;;;;;5.45;3.15;;;11.50;94.50;;;;;;6083680;23;20014;-81
2023/07/07 03:37:58;;;;;;;4.78;2.88;;;11.40;97.80;;;;;;6086272;23;20061;-81
2023/07/07 03:40:23;;;;;;;5.63;2.97;;;11.40;98.70;;;;;;6061623;23;20058;-80
2023/07/07 03:42:49;;;;;;;5.88;2.92;;;11.40;97.70;;;;;;6056381;23;20348;-80
2023/07/07 03:45:16;;;;;;;6.15;3.30;;;11.50;95.70;;;;;;6060725;23;20860;-81
2023/07/07 03:47:43;;;;;;;7.85;3.58;;;11.40;99.90;;;;;;6082140;23;20018;-81
2023/07/07 03:50:09;;;;;;;5.45;2.67;;;11.30;99.90;;;;;;6061883;23;20014;-80
2023/07/07 03:52:35;;;;;;;4.97;2.92;;;11.40;97.10;;;;;;6056940;23;20022;-80
2023/07/07 03:55:01;;;;;;;8.65;3.35;;;11.50;95.50;;;;;;6059527;23;20410;-80
2023/07/07 03:57:27;;;;;;;4.05;3.08;;;11.50;97.40;;;;;;6063202;23;20014;-79
2023/07/07 03:59:52;;;;;;;5.78;2.80;;;11.40;98.50;;;;;;6059141;23;20016;-80
2023/07/07 04:02:18;;;;;;;8.15;3.00;;;11.40;99.90;;;;;;6060090;23;20037;-79
2023/07/07 04:04:44;;;;;;;6.15;3.45;;;11.40;99.90;;;;;;6086581;23;20010;-79
2023/07/07 04:07:10;;;;;;;5.30;2.63;;;11.50;99.90;;;;;;6082933;23;20514;-80
2023/07/07 04:09:35;;;;;;;4.25;2.63;;;11.50;99.90;;;;;;6085237;23;20010;-80
2023/07/07 04:12:01;;;;;;;3.90;3.25;;;11.50;99.90;;;;;;6061051;23;20491;-79
2023/07/07 04:14:27;;;;;;;5.38;3.40;;;11.70;99.90;;;;;;6056992;23;20092;-80
2023/07/07 04:16:53;;;;;;;6.47;3.05;;;11.90;99.90;;;;;;6061719;23;20258;-80
2023/07/07 04:19:19;;;;;;;5.60;3.50;;;12.00;99.90;;;;;;6061264;23;20069;-80
2023/07/07 04:21:45;;;;;;;5.43;3.10;;;12.20;99.90;;;;;;6085235;23;20453;-80
2023/07/07 04:24:11;;;;;;;6.35;3.03;;;12.30;99.40;;;;;;6083341;23;20428;-80
2023/07/07 04:26:38;;;;;;;5.28;2.65;;;12.40;99.90;;;;;;6083591;23;20478;-79
2023/07/07 04:29:04;;;;;;;4.80;3.17;;;12.60;99.30;;;;;;6062700;23;20504;-80
2023/07/07 04:31:30;;;;;;;5.30;2.58;;;12.70;98.20;;;;;;6055933;23;20013;-79
2023/07/07 04:33:56;;;;;;;6.45;3.10;;;12.80;98.60;;;;;;6061285;23;20045;-80
2023/07/07 04:36:22;;;;;;;4.63;2.65;;;13.10;99.60;;;;;;6084714;23;20010;-79
2023/07/07 04:38:48;;;;;;;5.75;2.45;;;13.20;99.90;;;;;;6081690;23;20025;-79
2023/07/07 04:41:19;;;;;;;7.13;2.90;;;13.30;99.90;;;;;;6061934;23;20006;-79
2023/07/07 04:43:47;;;;;;;4.88;2.40;;;13.50;99.90;;;;;;6062248;23;20440;-78
2023/07/07 04:46:14;;;;;;;6.10;2.80;;;13.70;99.90;;;;;;6052212;23;20014;-79
2023/07/07 04:48:39;;;;;;;2.85;2.55;;;14.10;99.90;;;;;;6085968;23;20077;-79
2023/07/07 04:51:06;;;;;;;6.10;2.70;;;14.20;99.00;;;;;;6085319;23;20033;-78
2023/07/07 04:53:32;;;;;;;3.67;2.40;;;14.50;99.00;;;;;;6058462;23;20010;-79
2023/07/07 04:55:58;;;;;;;5.25;2.20;;;14.60;99.00;;;;;;6059398;23;20013;-78
2023/07/07 04:58:25;;;;;;;3.95;2.20;;;14.90;99.20;;;;;;6082782;23;20081;-79
2023/07/07 05:01:10;;;;;;;4.93;2.90;;;15.10;99.30;;;;;;6033898;23;20010;-78
2023/07/07 05:03:35;;;;;;;4.18;2.17;;;15.40;99.90;;;;;;6084487;23;20108;-78
2023/07/07 05:06:03;;;;;;;4.93;2.38;;;15.60;99.70;;;;;;6080645;23;20396;-78
2023/07/07 05:08:32;;;;;;;4.35;2.17;;;15.80;99.90;;;;;;6037385;23;20010;-78
2023/07/07 05:10:58;;;;;;;5.78;2.20;;;16.10;99.90;;;;;;6060050;23;20026;-78
2023/07/07 05:13:24;;;;;;;3.35;2.35;;;16.40;99.90;;;;;;6109422;23;20456;-79
2023/07/07 05:15:49;;;;;;;3.28;2.33;;;16.60;99.90;;;;;;6060961;23;20383;-79
2023/07/07 05:18:16;;;;;;;3.83;2.30;;;16.90;99.90;;;;;;6082454;23;20010;-79
2023/07/07 05:20:42;;;;;;;12.38;2.25;;;17.20;99.90;;;;;;6085514;23;20012;-79
2023/07/07 05:23:07;;;;;;;3.72;2.05;;;17.40;99.90;;;;;;6059692;23;20037;-79
2023/07/07 05:25:33;;;;;;;3.08;1.98;;;17.60;99.90;;;;;;6082324;23;20010;-78
2023/07/07 05:27:58;;;;;;;3.17;2.42;;;17.90;99.20;;;;;;6061267;23;20014;-78
2023/07/07 05:30:24;;;;;;;5.07;2.22;;;18.20;98.60;;;;;;6080904;23;20014;-79
2023/07/07 05:32:49;;;;;;;5.63;2.58;;;18.50;98.90;;;;;;6082834;23;20053;-79
2023/07/07 05:35:15;;;;;;;4.68;2.30;;;18.70;98.40;;;;;;6084107;23;20021;-78
2023/07/07 05:37:41;;;;;;;4.03;2.15;;;19.00;98.30;;;;;;6058389;23;20036;-79
2023/07/07 05:40:07;;;;;;;6.18;2.45;;;19.30;97.90;;;;;;6061541;23;20145;-78
2023/07/07 05:42:32;;;;;;;3.33;2.20;;;19.50;98.00;;;;;;6083483;23;20045;-80
2023/07/07 05:44:58;;;;;;;6.90;2.13;;;19.80;97.60;;;;;;6107896;23;20448;-78
2023/07/07 05:47:24;;;;;;;6.50;1.80;;;20.00;97.30;;;;;;6083101;23;20555;-77
2023/07/07 05:49:53;;;;;;;5.75;2.38;;;20.20;97.00;;;;;;6059780;23;20364;-78
2023/07/07 05:52:18;;;;;;;4.43;2.03;;;20.50;96.70;;;;;;6057421;23;20475;-78
2023/07/07 05:54:44;;;;;;;4.30;1.85;;;20.70;96.30;;;;;;6058719;23;20006;-78
2023/07/07 05:57:09;;;;;;;4.85;1.88;;;21.10;96.00;;;;;;6082514;23;20782;-78
2023/07/07 05:59:35;;;;;;;5.82;2.40;;;21.30;95.30;;;;;;6060043;23;20036;-78
2023/07/07 06:02:01;;;;;;;3.85;1.52;;;21.50;94.70;;;;;;6059237;23;25031;-77
2023/07/07 06:04:26;;;;;;;3.53;1.75;;;21.80;94.10;;;;;;6083782;23;20037;-77
2023/07/07 06:06:52;;;;;;;3.47;1.77;;;22.00;93.60;;;;;;6110516;23;20013;-78
2023/07/07 06:09:18;;;;;;;4.68;2.00;;;22.20;93.00;;;;;;6081229;23;20027;-77
2023/07/07 06:11:43;;;;;;;5.28;1.90;;;22.40;92.30;;;;;;6109937;23;20010;-77
2023/07/07 06:14:09;;;;;;;2.88;2.20;;;22.80;91.90;;;;;;6085352;23;20018;-77
2023/07/07 06:16:34;;;;;;;3.30;2.03;;;23.00;91.20;;;;;;6057199;23;20073;-78
2023/07/07 06:19:01;;;;;;;4.32;1.92;;;23.20;90.60;;;;;;6083620;23;20006;-77
2023/07/07 06:21:27;;;;;;;3.03;1.92;;;23.40;90.00;;;;;;6061379;23;20021;-78
2023/07/07 06:23:53;;;;;;;5.60;2.45;;;23.60;88.50;;;;;;6082663;23;20344;-77
2023/07/07 06:26:18;;;;;;;3.95;1.90;;;23.80;87.70;;;;;;6085092;23;20010;-77
2023/07/07 06:28:44;;;;;;;4.20;1.63;;;24.10;86.50;;;;;;6083509;23;20010;-77
2023/07/07 06:31:09;;;;;;;3.03;2.22;;;24.30;85.60;;;;;;6057824;23;20010;-78
2023/07/07 06:33:35;;;;;;;2.35;1.75;;;24.50;84.20;;;;;;6084729;23;20009;-77
2023/07/07 06:36:01;;;;;;;6.90;2.00;;;24.90;83.00;;;;;;6058774;23;20041;-77
2023/07/07 06:38:29;;;;;;;3.53;1.90;;;24.90;81.90;;;;;;6084615;23;20018;-77
2023/07/07 06:40:55;;;;;;;6.63;1.90;;;25.20;80.90;;;;;;6037925;23;20006;-77
2023/07/07 06:43:21;;;;;;;2.80;1.80;;;25.40;80.40;;;;;;6056023;23;20020;-77
2023/07/07 06:45:50;;;;;;;5.47;2.20;;;25.60;78.60;;;;;;6083343;23;20089;-78
2023/07/07 06:48:15;;;;;;;3.47;1.70;;;25.80;77.90;;;;;;6085248;23;20330;-78
2023/07/07 06:50:41;;;;;;;3.05;2.08;;;25.90;78.20;;;;;;6060498;23;20021;-78
2023/07/07 06:53:07;;;;;;;4.15;1.42;;;26.10;76.30;;;;;;6083209;23;20013;-77
2023/07/07 06:55:33;;;;;;;3.97;2.30;;;26.30;76.40;;;;;;6057597;23;20321;-77
2023/07/07 06:57:58;;;;;;;3.22;2.13;;;26.50;75.40;;;;;;6058641;23;20052;-78
2023/07/07 07:00:24;;;;;;;5.28;1.90;;;26.70;73.90;;;;;;6060036;23;20029;-78
2023/07/07 07:02:50;;;;;;;3.20;1.63;;;26.90;73.50;;;;;;6057625;23;20409;-78
2023/07/07 07:05:15;;;;;;;7.25;1.77;;;27.00;73.10;;;;;;6108201;23;20085;-78
2023/07/07 07:07:41;;;;;;;2.95;1.77;;;27.20;73.20;;;;;;6083871;23;20014;-78
2023/07/07 07:10:07;;;;;;;5.22;1.83;;;27.50;71.70;;;;;;6077718;23;20013;-77
2023/07/07 07:12:33;;;;;;;2.25;1.55;;;27.70;71.50;;;;;;6108281;23;20428;-77
2023/07/07 07:14:58;;;;;;;2.60;1.23;;;27.90;70.00;;;;;;6062273;23;20026;-78
2023/07/07 07:17:24;;;;;;;3.50;1.70;;;28.10;69.80;;;;;;6058258;23;20018;-78
2023/07/07 07:19:50;;;;;;;7.65;2.15;;;28.30;68.90;;;;;;6062235;23;20042;-78
2023/07/07 07:22:16;;;;;;;4.25;1.83;;;28.60;68.60;;;;;;6035835;23;20018;-78
2023/07/07 07:24:42;;;;;;;2.13;1.50;;;28.70;67.80;;;;;;6084449;23;20013;-78
2023/07/07 07:27:07;;;;;;;3.08;1.58;;;28.70;67.20;;;;;;6061239;23;20443;-78
2023/07/07 07:29:33;;;;;;;4.28;1.90;;;28.90;67.60;;;;;;6081765;23;20359;-78
2023/07/07 07:31:58;;;;;;;3.22;1.50;;;29.20;66.80;;;;;;6059937;23;20068;-78
2023/07/07 07:34:26;;;;;;;4.18;1.88;;;29.20;66.20;;;;;;6058306;23;20018;-78
2023/07/07 07:36:51;;;;;;;1.30;1.20;;;29.40;66.80;;;;;;6082380;23;20317;-78
2023/07/07 07:39:17;;;;;;;4.60;1.70;;;29.50;64.90;;;;;;6085107;23;20028;-78
2023/07/07 07:41:45;;;;;;;4.15;1.55;;;29.80;64.50;;;;;;6058348;23;20096;-77
2023/07/07 07:44:10;;;;;;;2.35;1.40;;;30.00;62.50;;;;;;6061303;23;20081;-79
2023/07/07 07:46:36;;;;;;;3.63;2.20;;;30.20;60.90;;;;;;6084126;23;20075;-77
2023/07/07 07:49:02;;;;;;;1.95;1.45;;;30.40;60.30;;;;;;6057388;23;20321;-78
2023/07/07 07:51:28;;;;;;;2.85;1.45;;;30.50;61.00;;;;;;6061969;23;20006;-77
2023/07/07 07:53:53;;;;;;;3.55;1.23;;;30.70;59.90;;;;;;6083741;23;20334;-78
2023/07/07 07:56:19;;;;;;;1.95;1.23;;;30.70;59.30;;;;;;6078714;23;20053;-80
2023/07/07 07:58:44;;;;;;;1.75;1.50;;;30.70;59.50;;;;;;6082996;23;20027;-78
2023/07/07 08:01:10;;;;;;;6.30;1.80;;;30.60;61.00;;;;;;6062116;23;20065;-79
2023/07/07 08:03:35;;;;;;;1.92;1.20;;;31.00;60.50;;;;;;6071202;23;20025;-79
2023/07/07 08:06:01;;;;;;;2.72;1.20;;;30.90;59.30;;;;;;6077177;23;20093;-79
2023/07/07 08:08:26;;;;;;;2.72;1.52;;;30.80;59.40;;;;;;6085270;23;20018;-79
2023/07/07 08:10:52;;;;;;;1.48;1.10;;;31.30;57.70;;;;;;6060718;23;20017;-79
2023/07/07 08:13:17;;;;;;;1.30;1.15;;;31.40;58.40;;;;;;6057697;23;20010;-79
2023/07/07 08:15:43;;;;;;;1.90;1.13;;;30.70;58.00;;;;;;6060379;23;20013;-80
2023/07/07 08:18:08;;;;;;;6.00;1.65;;;31.10;57.50;;;;;;6059643;23;20057;-80
2023/07/07 08:20:34;;;;;;;1.83;1.52;;;31.90;56.00;;;;;;6055732;23;20040;-80
2023/07/07 08:22:59;;;;;;;3.15;1.23;;;32.50;53.90;;;;;;6085651;23;20097;-80
2023/07/07 08:25:27;;;;;;;1.98;1.00;;;32.40;54.30;;;;;;6079441;23;20073;-80
2023/07/07 08:27:53;;;;;;;2.55;1.00;;;32.30;53.90;;;;;;6063474;23;20014;-80
2023/07/07 08:30:19;;;;;;;1.52;1.00;;;32.40;54.60;;;;;;6053403;23;20030;-80
2023/07/07 08:32:45;;;;;;;1.15;1.02;;;32.10;55.30;;;;;;6060262;23;20193;-80
2023/07/07 08:35:10;;;;;;;3.65;1.10;;;31.80;55.70;;;;;;6085995;23;20014;-80
2023/07/07 08:37:36;;;;;;;1.90;1.30;;;32.20;54.80;;;;;;6029707;23;20017;-80
2023/07/07 08:40:02;;;;;;;2.17;1.40;;;32.40;53.50;;;;;;6060126;23;20050;-80
2023/07/07 08:42:38;;;;;;;2.25;1.50;;;32.90;51.90;;;;;;6063185;23;20029;-81
2023/07/07 08:45:05;;;;;;;4.45;1.65;;;33.00;51.60;;;;;;6080063;23;20014;-81
2023/07/07 08:47:48;;;;;;;3.10;1.40;;;33.30;51.00;;;;;;6059698;23;20024;-82
2023/07/07 08:50:28;;;;;;;5.28;2.22;;;33.40;50.60;;;;;;6081757;23;20232;-81
2023/07/07 08:52:57;;;;;;;2.65;1.35;;;33.80;49.20;;;;;;6081395;23;20010;-82
2023/07/07 08:55:37;;;;;;;1.33;1.13;;;34.10;47.20;;;;;;6079847;23;20407;-81
2023/07/07 08:58:26;;;;;;;2.17;1.45;;;33.70;49.20;;;;;;6059473;23;20010;-81
2023/07/07 09:01:00;;;;;;;2.03;1.60;;;34.00;47.20;;;;;;6046058;23;20022;-81
2023/07/07 09:03:41;;;;;;;1.20;1.10;;;34.30;46.30;;;;;;6077882;23;20022;-81
2023/07/07 09:06:32;;;;;;;1.95;1.75;;;34.30;47.90;;;;;;6037481;23;20503;-80
2023/07/07 09:09:08;;;;;;;2.47;1.55;;;34.10;48.10;;;;;;6063239;23;20314;-80
2023/07/07 09:11:42;;;;;;;2.17;1.65;;;33.90;48.00;;;;;;6038410;23;20348;-80
2023/07/07 09:14:08;;;;;;;3.40;1.77;;;34.20;47.30;;;;;;6108501;23;20014;-80
2023/07/07 09:16:34;;;;;;;2.38;1.90;;;34.80;46.20;;;;;;6056769;23;20013;-80
2023/07/07 09:19:35;;;;;;;2.95;1.30;;;35.00;45.30;;;;;;6033527;23;20037;-80
2023/07/07 09:22:16;;;;;;;2.42;1.80;;;34.90;47.10;;;;;;6090743;23;20014;-82
2023/07/07 09:24:45;;;;;;;2.42;1.52;;;34.50;48.30;;;;;;6062282;23;20459;-81
2023/07/07 09:27:16;;;;;;;2.10;1.55;;;34.40;47.40;;;;;;6076833;23;20044;-82
2023/07/07 09:29:45;;;;;;;2.88;1.33;;;34.60;47.70;;;;;;6062271;23;20117;-82
2023/07/07 09:32:12;;;;;;;3.22;1.77;;;35.00;44.90;;;;;;6083955;23;20021;-80
2023/07/07 09:34:39;;;;;;;3.35;1.80;;;35.30;44.80;;;;;;6063240;23;20013;-81
2023/07/07 09:37:18;;;;;;;2.50;1.65;;;35.20;43.80;;;;;;6059499;23;20006;-80
2023/07/07 09:40:13;;;;;;;3.22;2.00;;;35.30;44.80;;;;;;6083980;23;20049;-81
2023/07/07 09:42:57;;;;;;;4.38;2.15;;;35.10;45.70;;;;;;6039093;23;20042;-81
2023/07/07 09:45:49;;;;;;;2.10;1.60;;;35.70;42.60;;;;;;6108849;23;20016;-81
2023/07/07 09:48:21;;;;;;;2.15;1.90;;;36.00;42.30;;;;;;6104158;23;20281;-81
2023/07/07 09:50:56;;;;;;;3.08;1.65;;;36.30;41.20;;;;;;6037630;23;20032;-81
2023/07/07 09:53:31;;;;;;;2.78;1.65;;;36.30;40.80;;;;;;6060176;23;20033;-81
2023/07/07 09:55:57;;;;;;;2.55;1.73;;;36.40;41.00;;;;;;6060729;23;20017;-81
2023/07/07 09:58:28;;;;;;;4.38;1.67;;;35.90;43.10;;;;;;6060881;23;20077;-81
2023/07/07 10:00:56;;;;;;;2.70;1.65;;;36.10;42.40;;;;;;6032376;23;20065;-81
2023/07/07 10:03:25;;;;;;;1.60;1.40;;;36.10;43.90;;;;;;6035395;23;20021;-82
2023/07/07 10:05:51;;;;;;;2.22;1.70;;;36.20;44.50;;;;;;6062850;23;20117;-82
2023/07/07 10:08:17;;;;;;;2.47;1.67;;;36.20;42.60;;;;;;6081490;23;20064;-81
2023/07/07 10:10:43;;;;;;;5.57;2.00;;;36.40;43.30;;;;;;6078242;23;20449;-82
2023/07/07 10:13:10;;;;;;;2.28;1.50;;;36.80;40.70;;;;;;6058553;23;20024;-81
2023/07/07 10:15:50;;;;;;;2.83;1.50;;;37.20;38.50;;;;;;6055925;23;20022;-81
2023/07/07 10:18:17;;;;;;;4.30;1.80;;;36.80;41.00;;;;;;6084560;23;20090;-82
2023/07/07 10:20:43;;;;;;;1.65;1.55;;;37.00;40.30;;;;;;6078752;23;20018;-81
2023/07/07 10:23:10;;;;;;;3.22;1.77;;;37.10;40.60;;;;;;6036190;23;20082;-82
2023/07/07 10:25:36;;;;;;;1.80;1.33;;;37.30;39.80;;;;;;6059303;23;20483;-82
2023/07/07 10:28:01;;;;;;;1.75;1.52;;;37.50;39.40;;;;;;6054913;23;20010;-82
2023/07/07 10:30:27;;;;;;;2.50;1.60;;;37.40;40.30;;;;;;6062053;23;20014;-82
2023/07/07 10:32:53;;;;;;;1.95;1.55;;;37.40;39.30;;;;;;6037208;23;20014;-81
2023/07/07 10:35:19;;;;;;;2.58;1.70;;;37.50;39.50;;;;;;6059370;23;20006;-81
2023/07/07 10:37:46;;;;;;;1.90;1.65;;;37.70;41.10;;;;;;6061489;23;20060;-82
2023/07/07 10:40:21;;;;;;;2.72;1.70;;;37.80;39.40;;;;;;6060230;23;20017;-82
2023/07/07 10:42:52;;;;;;;1.70;1.48;;;37.90;38.90;;;;;;6058125;23;20440;-82
2023/07/07 10:45:18;;;;;;;1.70;1.58;;;37.70;41.00;;;;;;6046087;23;20010;-81
2023/07/07 10:47:44;;;;;;;1.60;1.10;;;38.00;40.60;;;;;;6058042;23;20421;-82
2023/07/07 10:50:14;;;;;;;1.63;1.30;;;37.90;41.10;;;;;;6053806;23;20018;-82
2023/07/07 10:52:54;;;;;;;3.22;1.77;;;38.20;40.50;;;;;;6079347;23;20081;-83
2023/07/07 10:55:47;;;;;;;4.18;1.80;;;38.30;37.70;;;;;;6081731;23;20308;-82
2023/07/07 10:58:31;;;;;;;3.78;2.20;;;38.40;37.30;;;;;;6044176;23;20011;-81
2023/07/07 11:01:22;;;;;;;2.55;1.38;;;38.50;36.40;;;;;;6062421;23;20016;-80
2023/07/07 11:03:58;;;;;;;1.80;1.35;;;38.90;39.40;;;;;;6079677;23;20281;-80
2023/07/07 11:06:27;;;;;;;1.50;1.27;;;38.70;39.20;;;;;;6079435;23;20057;-80
2023/07/07 11:09:11;;;;;;;2.17;1.98;;;38.90;38.00;;;;;;6059044;23;20038;-79
2023/07/07 11:11:39;;;;;;;2.42;1.88;;;38.80;37.90;;;;;;6081749;23;20021;-79
2023/07/07 11:14:11;;;;;;;3.03;1.80;;;38.70;37.30;;;;;;6081648;23;20022;-80
2023/07/07 11:16:45;;;;;;;2.88;1.85;;;38.70;37.50;;;;;;6083364;23;20014;-80
2023/07/07 11:19:20;;;;;;;2.17;1.55;;;38.90;37.40;;;;;;6110749;23;20032;-81
2023/07/07 11:22:33;;;;;;;2.42;1.55;;;39.10;35.20;;;;;;6078683;23;20156;-80
2023/07/07 11:25:05;;;;;;;2.67;1.20;;;39.20;37.90;;;;;;6089569;23;20019;-79
2023/07/07 11:27:39;;;;;;;2.42;1.88;;;39.40;38.00;;;;;;6034886;23;20502;-80
2023/07/07 11:30:35;;;;;;;3.45;1.88;;;39.50;36.70;;;;;;6071115;23;20048;-80
2023/07/07 11:33:29;;;;;;;1.52;1.20;;;39.50;37.30;;;;;;6082788;23;20014;-80
2023/07/07 11:36:16;;;;;;;2.65;1.63;;;39.50;36.30;;;;;;6059714;23;20392;-81
2023/07/07 11:38:49;;;;;;;1.98;1.40;;;39.50;37.20;;;;;;6065666;23;20009;-81
2023/07/07 11:41:20;;;;;;;2.78;1.90;;;39.60;37.80;;;;;;6084974;23;20018;-80
2023/07/07 11:44:17;;;;;;;1.95;1.50;;;39.60;34.10;;;;;;6105187;23;20483;-81
2023/07/07 11:47:18;;;;;;;1.65;1.50;;;39.60;36.40;;;;;;6073947;23;20069;-81
2023/07/07 11:49:59;;;;;;;2.70;1.65;;;39.90;35.50;;;;;;6040519;23;20041;-83
2023/07/07 11:52:56;;;;;;;3.25;1.85;;;40.20;33.90;;;;;;6069758;23;20022;-82
2023/07/07 11:55:54;;;;;;;2.20;2.00;;;40.20;32.00;;;;;;6036228;23;20014;-77
2023/07/07 11:58:30;;;;;;;5.15;1.83;;;40.20;32.30;;;;;;6052309;23;20050;-78
2023/07/07 12:01:13;;;;;;;1.95;1.58;;;40.10;33.60;;;;;;6077360;23;20010;-78
2023/07/07 12:03:52;;;;;;;2.83;1.63;;;40.20;32.70;;;;;;6053227;23;20018;-78
2023/07/07 12:06:45;;;;;;;2.05;1.35;;;40.10;35.70;;;;;;6055088;23;20011;-78
2023/07/07 12:09:48;;;;;;;3.80;1.55;;;40.20;34.80;;;;;;6067182;23;20437;-77
2023/07/07 12:12:37;;;;;;;2.90;1.75;;;40.30;34.30;;;;;;6104788;23;20511;-78
2023/07/07 12:15:14;;;;;;;2.95;1.40;;;40.20;33.30;;;;;;6037775;23;20037;-78
2023/07/07 12:17:42;;;;;;;2.50;1.50;;;40.40;34.60;;;;;;6104078;23;20009;-77
2023/07/07 12:20:25;;;;;;;2.53;1.65;;;40.30;33.20;;;;;;6057627;23;20006;-77
2023/07/07 12:22:51;;;;;;;1.50;1.27;;;40.20;31.90;;;;;;6036460;23;20499;-77
2023/07/07 12:25:26;;;;;;;6.47;2.28;;;40.20;32.50;;;;;;6058547;23;20006;-78
2023/07/07 12:27:53;;;;;;;1.15;1.05;;;40.60;31.00;;;;;;6060165;23;20021;-77
2023/07/07 12:30:27;;;;;;;3.20;1.33;;;40.60;34.60;;;;;;6061280;23;20451;-77
2023/07/07 12:32:53;;;;;;;1.63;1.52;;;40.80;34.80;;;;;;6008124;23;20018;-77
2023/07/07 12:35:31;;;;;;;3.80;1.63;;;40.60;32.50;;;;;;6080178;23;20462;-77
2023/07/07 12:38:31;;;;;;;1.98;1.75;;;40.70;31.90;;;;;;6030087;23;20017;-78
2023/07/07 12:41:11;;;;;;;2.28;1.45;;;40.70;32.30;;;;;;6045155;23;20349;-78
2023/07/07 12:44:03;;;;;;;1.40;1.30;;;41.30;33.10;;;;;;6038130;23;20024;-78
2023/07/07 12:46:34;;;;;;;2.53;1.40;;;40.90;33.80;;;;;;6053858;23;20018;-77
2023/07/07 12:49:04;;;;;;;1.55;1.35;;;40.80;32.50;;;;;;6057934;23;20348;-79
2023/07/07 12:51:31;;;;;;;2.42;1.77;;;40.70;31.70;;;;;;6056559;23;20041;-78
2023/07/07 12:53:57;;;;;;;1.67;1.27;;;40.90;30.90;;;;;;6082375;23;20508;-78
2023/07/07 12:56:24;;;;;;;2.10;1.63;;;40.90;31.80;;;;;;6051997;23;20014;-78
2023/07/07 12:58:53;;;;;;;4.47;1.55;;;41.10;31.40;;;;;;6076002;23;20090;-78
2023/07/07 13:01:19;;;;;;;1.98;1.40;;;41.30;30.70;;;;;;6079613;23;20378;-84
2023/07/07 13:03:45;;;;;;;1.95;1.60;;;41.30;31.20;;;;;;6052678;23;20110;-83